Time;durP1;ratioP1;P1;durP2;ratioP2;P2;SDS_P1;SDS_P2;PMS_P1;PMS_P2;Temp;Humidity;BMP_temperature;BMP_pressure;BME280_temperature;BME280_humidity;BME280_pressure;Samples;Min_cycle;Max_cycle;Signal;HPM_P1;HPM_P2
2022/02/05 00:01:47;;;;;;;31.63;14.93;;;;;;;-0.32;46.52;99197.75;5072662;28;20047;-70
2022/02/05 00:04:15;;;;;;;30.17;14.60;;;;;;;-0.22;46.12;99216.25;5061342;28;20100;-70
2022/02/05 00:06:44;;;;;;;29.47;14.70;;;;;;;-0.21;46.35;99220.50;5061799;28;20044;-69
2022/02/05 00:38:14;;;;;;;35.43;15.50;;;;;;;-0.25;46.40;99209.44;5063094;28;20126;-71
2022/02/05 00:41:18;;;;;;;36.00;15.40;;;;;;;-0.17;46.30;99207.16;5093706;28;20047;-71
2022/02/05 00:43:53;;;;;;;34.47;15.10;;;;;;;-0.20;46.77;99211.75;5046789;28;20047;-70
2022/02/05 00:46:20;;;;;;;32.07;14.77;;;;;;;-0.25;46.68;99208.63;5044813;28;20035;-71
2022/02/05 00:48:46;;;;;;;27.70;14.20;;;;;;;-0.40;46.51;99194.78;5060320;28;20047;-70
2022/02/05 00:51:17;;;;;;;33.77;15.40;;;;;;;-0.41;46.78;99211.38;5043377;28;20549;-70
2022/02/05 00:53:46;;;;;;;32.67;14.30;;;;;;;-0.35;46.76;99208.38;5044139;28;20050;-70
2022/02/05 00:58:40;;;;;;;36.00;15.87;;;;;;;-0.35;46.56;99215.34;5060204;28;20447;-69
2022/02/05 01:01:07;;;;;;;35.53;15.73;;;;;;;-0.23;46.23;99209.34;5043065;28;20063;-69
2022/02/05 01:03:36;;;;;;;29.73;15.17;;;;;;;-0.42;46.56;99206.28;5076640;28;20138;-70
2022/02/05 01:06:03;;;;;;;33.93;16.07;;;;;;;-0.36;46.82;99180.63;5059873;28;20134;-69
2022/02/05 01:08:29;;;;;;;38.80;16.70;;;;;;;-0.47;46.70;99195.28;5076172;28;20067;-69
2022/02/05 01:10:55;;;;;;;33.07;15.47;;;;;;;-0.48;46.95;99194.44;5059011;28;20051;-69
2022/02/05 01:13:22;;;;;;;31.70;15.40;;;;;;;-0.47;46.95;99195.28;5059422;28;20047;-69
2022/02/05 01:15:59;;;;;;;27.73;15.40;;;;;;;-0.48;47.09;99191.84;5076403;28;20052;-69
2022/02/05 01:18:26;;;;;;;35.10;16.97;;;;;;;-0.45;47.12;99202.09;5092792;28;20061;-69
2022/02/05 01:23:24;;;;;;;41.13;15.80;;;;;;;-0.54;47.07;99179.22;5058997;28;20056;-68
2022/02/05 01:25:59;;;;;;;30.97;14.60;;;;;;;-0.66;46.82;99156.53;5059211;28;20084;-68
2022/02/05 01:28:30;;;;;;;32.70;15.37;;;;;;;-0.50;46.74;99188.53;5092948;28;20486;-69
2022/02/05 01:30:57;;;;;;;30.47;15.03;;;;;;;-0.44;46.63;99189.88;5059302;28;20043;-70
2022/02/05 01:50:03;;;;;;;31.67;15.13;;;;;;;-1.30;46.70;99103.44;5078909;28;20043;-69
2022/02/05 01:52:34;;;;;;;34.13;15.07;;;;;;;-0.80;46.31;99192.28;5062575;28;20130;-69
2022/02/05 01:55:29;;;;;;;36.80;16.20;;;;;;;-0.63;46.02;99195.44;5077354;28;20100;-69
2022/02/05 01:58:15;;;;;;;29.37;13.77;;;;;;;-0.76;46.17;99176.34;5092188;28;20112;-69
2022/02/05 02:12:06;;;;;;;34.57;14.97;;;;;;;-0.59;44.37;99159.59;5061175;28;20039;-70
2022/02/05 02:19:34;;;;;;;31.07;15.07;;;;;;;-0.40;42.91;99173.13;5074982;28;20047;-70
2022/02/05 02:22:30;;;;;;;31.17;14.20;;;;;;;-0.29;42.79;99170.59;5057388;28;20038;-70
2022/02/05 02:30:01;;;;;;;29.40;14.50;;;;;;;-0.09;43.11;99172.72;5079506;28;20073;-70
2022/02/05 02:32:30;;;;;;;34.22;14.68;;;;;;;0.02;43.04;99175.44;5083096;28;20503;-70
2022/02/05 02:35:03;;;;;;;30.80;14.93;;;;;;;0.03;43.25;99176.28;5079393;28;20122;-70
2022/02/05 02:38:17;;;;;;;27.73;15.23;;;;;;;-0.07;42.76;99161.25;5063485;28;20369;-70
2022/02/05 02:42:45;;;;;;;26.47;14.20;;;;;;;0.24;41.67;99190.50;5079724;28;20419;-70
2022/02/05 02:45:11;;;;;;;34.77;14.90;;;;;;;-0.05;41.47;99158.53;5079589;28;20506;-70
2022/02/05 02:47:43;;;;;;;27.30;14.13;;;;;;;0.11;41.81;99185.25;5045857;28;20036;-70
2022/02/05 02:50:17;;;;;;;32.23;14.70;;;;;;;0.26;41.54;99186.84;5079064;28;20495;-70
2022/02/05 02:58:16;;;;;;;37.33;15.00;;;;;;;0.12;41.43;99168.69;5079217;28;20047;-71
2022/02/05 03:00:42;;;;;;;32.40;14.93;;;;;;;0.00;41.40;99152.06;5062746;28;20122;-71
2022/02/05 03:03:08;;;;;;;34.83;17.00;;;;;;;0.07;41.87;99162.06;5078818;28;20212;-71
2022/02/05 03:05:34;;;;;;;35.83;16.17;;;;;;;0.00;41.35;99157.28;5079196;28;20438;-70
2022/02/05 03:08:00;;;;;;;41.97;17.67;;;;;;;0.03;41.51;99165.84;5045513;28;20071;-70
2022/02/05 03:10:26;;;;;;;37.90;15.73;;;;;;;0.03;41.86;99170.13;5062258;28;20486;-70
2022/02/05 03:12:52;;;;;;;48.70;18.20;;;;;;;-0.02;41.46;99169.59;5062045;28;20415;-70
2022/02/05 03:15:20;;;;;;;52.17;19.13;;;;;;;-0.08;40.81;99174.41;5061926;28;20055;-70
2022/02/05 03:18:45;;;;;;;45.30;16.80;;;;;;;-0.05;40.88;99175.00;5078567;28;20043;-71
2022/02/05 03:20:33;;;;;;;48.43;16.30;;;;;;;-0.07;40.90;99166.47;5070777;28;20079;-70
2022/02/05 03:23:02;;;;;;;36.90;15.87;;;;;;;-0.11;40.71;99158.97;5061443;28;20499;-70
2022/02/05 03:25:30;;;;;;;34.13;16.27;;;;;;;-0.11;41.14;99151.94;5095656;28;20044;-70
2022/02/05 03:27:56;;;;;;;39.57;16.93;;;;;;;-0.20;40.95;99155.16;5078940;28;20168;-69
2022/02/05 03:30:23;;;;;;;41.27;16.47;;;;;;;-0.20;41.02;99160.38;5096086;28;20047;-69
2022/02/05 03:32:49;;;;;;;44.10;17.90;;;;;;;-0.39;41.08;99157.34;5079009;28;20043;-71
2022/02/05 03:35:15;;;;;;;42.47;16.83;;;;;;;-0.50;41.60;99152.00;5062076;28;20510;-71
2022/02/05 03:37:41;;;;;;;39.10;15.87;;;;;;;-0.58;40.99;99150.81;5044621;28;20044;-70
2022/02/05 03:40:08;;;;;;;42.20;16.70;;;;;;;-0.52;41.26;99163.47;5061026;28;20050;-70
2022/02/05 03:42:35;;;;;;;41.87;17.53;;;;;;;-0.68;41.68;99163.66;5044429;28;20448;-70
2022/02/05 03:45:01;;;;;;;38.83;20.07;;;;;;;-0.68;40.90;99162.81;5077624;28;20039;-70
2022/02/05 03:47:31;;;;;;;40.07;17.80;;;;;;;-0.68;41.83;99157.59;5060802;28;20487;-71
2022/02/05 03:49:57;;;;;;;40.35;18.35;;;;;;;-0.65;40.92;99166.06;5061167;28;20506;-71
2022/02/05 03:52:23;;;;;;;41.77;18.83;;;;;;;-0.67;41.18;99164.47;5044398;28;20047;-71
2022/02/05 03:54:49;;;;;;;38.87;20.00;;;;;;;-0.71;41.34;99163.81;5094573;28;20046;-71
2022/02/05 03:57:15;;;;;;;42.00;20.83;;;;;;;-0.77;41.55;99156.41;5044543;28;20093;-70
2022/02/05 03:59:41;;;;;;;45.83;20.50;;;;;;;-0.83;41.44;99150.78;5094343;28;20050;-69
2022/02/05 04:02:07;;;;;;;41.07;19.30;;;;;;;-0.76;42.48;99165.06;5060063;28;20051;-73
2022/02/05 04:04:33;;;;;;;45.57;21.37;;;;;;;-0.78;42.37;99175.59;5060582;28;20035;-71
2022/02/05 04:07:00;;;;;;;40.60;18.63;;;;;;;-0.77;42.37;99179.03;5061232;28;20499;-71
2022/02/05 04:09:32;;;;;;;42.30;19.07;;;;;;;-0.82;41.92;99163.69;5078644;28;20058;-70
2022/02/05 04:15:57;;;;;;;35.83;16.73;;;;;;;-0.78;41.72;99177.34;5045628;28;20142;-71
2022/02/05 04:17:30;;;;;;;43.80;16.43;;;;;;;-0.94;40.75;99168.88;5062934;28;20067;-72
2022/02/05 04:19:56;;;;;;;41.63;17.30;;;;;;;-0.92;41.12;99173.03;5060609;28;20072;-71
2022/02/05 04:22:22;;;;;;;35.67;16.10;;;;;;;-0.93;41.29;99170.53;5043652;28;20043;-72
2022/02/05 04:24:48;;;;;;;35.00;16.13;;;;;;;-0.94;41.27;99161.84;5077371;28;20082;-72
2022/02/05 04:27:15;;;;;;;43.33;16.70;;;;;;;-0.83;41.16;99169.81;5061005;28;20519;-72
2022/02/05 04:29:41;;;;;;;35.97;16.50;;;;;;;-0.82;40.96;99175.88;5060782;28;20032;-71
2022/02/05 04:32:08;;;;;;;39.77;17.30;;;;;;;-0.80;41.21;99167.03;5061065;28;20058;-70
2022/02/05 04:34:34;;;;;;;32.07;16.13;;;;;;;-0.91;40.64;99169.50;5077224;28;20054;-72
2022/02/05 04:37:03;;;;;;;37.90;17.57;;;;;;;-0.92;40.88;99170.41;5060253;28;20035;-71
2022/02/05 04:39:29;;;;;;;44.17;18.30;;;;;;;-0.96;40.20;99178.53;5060212;28;20035;-71
2022/02/05 04:42:07;;;;;;;35.43;17.03;;;;;;;-0.99;40.71;99178.72;5077049;28;20176;-70
2022/02/05 05:20:21;;;;;;;45.30;20.07;;;;;;;-0.49;43.11;99171.94;5061481;28;20465;-68
2022/02/05 05:22:47;;;;;;;53.20;21.27;;;;;;;-0.41;42.86;99171.41;5076218;28;20054;-74
2022/02/05 05:25:13;;;;;;;48.13;19.17;;;;;;;-0.37;42.94;99159.88;5043132;28;20100;-73
2022/02/05 05:27:39;;;;;;;50.70;20.77;;;;;;;-0.36;43.07;99162.38;5077208;28;20043;-74
2022/02/05 05:30:06;;;;;;;49.77;20.47;;;;;;;-0.27;42.70;99143.50;5068106;28;20058;-81
2022/02/05 05:32:33;;;;;;;59.40;21.47;;;;;;;-0.17;42.59;99165.41;5059173;28;20571;-75
2022/02/05 05:34:58;;;;;;;53.17;20.97;;;;;;;-0.29;42.82;99162.78;5064864;28;20507;-74
2022/02/05 05:37:24;;;;;;;48.83;20.17;;;;;;;-0.20;42.91;99173.44;5059028;28;20043;-78
2022/02/05 05:39:50;;;;;;;49.43;20.43;;;;;;;-0.21;42.57;99170.94;5059022;28;20067;-75
2022/02/05 05:42:39;;;;;;;51.13;21.57;;;;;;;-0.04;42.69;99176.72;5058867;28;20470;-78
2022/02/05 05:47:59;;;;;;;56.33;20.80;;;;;;;-0.35;43.09;99140.56;5074126;28;20047;-74
2022/02/05 05:53:12;;;;;;;54.87;21.73;;;;;;;0.27;42.94;99164.16;5071332;28;20051;-74
2022/02/05 05:55:46;;;;;;;57.53;22.20;;;;;;;0.26;42.89;99150.28;5052674;28;20051;-75
2022/02/05 05:58:17;;;;;;;57.07;22.57;;;;;;;0.25;43.02;99134.72;5086273;28;20137;-74
2022/02/05 06:00:43;;;;;;;;;;;;;;;0.51;42.22;99155.47;5070067;28;20847;-73
2022/02/05 06:03:09;;;;;;;48.03;19.20;;;;;;;0.10;42.90;99139.22;5052985;28;19919;-74
2022/02/05 06:05:35;;;;;;;59.23;21.20;;;;;;;0.05;42.71;99153.53;5073364;28;20426;-74
2022/02/05 06:08:04;;;;;;;53.30;22.60;;;;;;;0.12;42.22;99160.84;5058504;28;20036;-74
2022/02/05 06:10:30;;;;;;;62.73;22.27;;;;;;;-0.07;41.62;99129.09;5059372;28;20039;-74
2022/02/05 06:12:55;;;;;;;51.43;21.37;;;;;;;-0.06;41.43;99122.91;5059802;28;20043;-74
2022/02/05 06:15:22;;;;;;;64.20;22.87;;;;;;;0.13;41.78;99146.00;5043615;28;20503;-75
2022/02/05 06:17:50;;;;;;;60.13;21.13;;;;;;;0.06;41.63;99148.22;5075659;28;20043;-74
2022/02/05 06:20:16;;;;;;;60.43;22.27;;;;;;;0.06;41.66;99145.59;5075551;28;20051;-75
2022/02/05 06:22:42;;;;;;;51.33;19.77;;;;;;;0.03;41.97;99140.59;5075330;28;20051;-74
2022/02/05 06:25:09;;;;;;;54.00;21.07;;;;;;;0.18;41.94;99149.13;5058561;28;20052;-74
2022/02/05 06:27:34;;;;;;;47.07;20.37;;;;;;;0.10;41.78;99130.53;5075565;28;20511;-74
2022/02/05 06:30:01;;;;;;;54.57;21.03;;;;;;;0.22;41.69;99137.53;5075909;28;20061;-74
2022/02/05 06:32:26;;;;;;;49.00;19.17;;;;;;;0.20;41.76;99135.03;5058163;28;20392;-74
2022/02/05 06:34:52;;;;;;;53.10;19.63;;;;;;;0.27;41.85;99143.28;5058460;28;20108;-74
2022/02/05 06:37:18;;;;;;;48.43;19.67;;;;;;;0.30;41.71;99145.66;5058253;28;20104;-74
2022/02/05 06:39:45;;;;;;;56.17;21.73;;;;;;;0.42;41.51;99135.22;5041524;28;20036;-74
2022/02/05 06:42:11;;;;;;;47.57;20.30;;;;;;;0.38;41.58;99140.75;5058225;28;20043;-74
2022/02/05 06:44:37;;;;;;;49.00;20.63;;;;;;;0.36;41.38;99133.03;5058088;28;20125;-74
2022/02/05 06:47:04;;;;;;;51.97;20.57;;;;;;;0.49;41.04;99138.25;5042012;28;20108;-75
2022/02/05 06:49:30;;;;;;;49.63;20.07;;;;;;;0.40;40.78;99144.91;5058289;28;20465;-74
2022/02/05 06:51:57;;;;;;;48.83;19.87;;;;;;;0.40;40.71;99131.84;5075464;28;20043;-74
2022/02/05 06:54:23;;;;;;;50.47;21.07;;;;;;;0.44;40.69;99140.31;5058747;28;20146;-74
2022/02/05 06:56:49;;;;;;;49.73;21.30;;;;;;;0.34;40.71;99144.53;5058614;28;20091;-74
2022/02/05 06:59:15;;;;;;;56.73;21.03;;;;;;;0.36;40.79;99138.25;5042623;28;20130;-74
2022/02/05 07:01:41;;;;;;;56.47;23.00;;;;;;;0.45;40.96;99136.75;5059146;28;20035;-75
2022/02/05 07:04:07;;;;;;;55.17;21.27;;;;;;;0.46;40.72;99131.44;5055899;28;20070;-74
2022/02/05 07:06:33;;;;;;;54.47;22.33;;;;;;;0.55;40.67;99119.50;5055145;28;20451;-74
2022/02/05 07:09:00;;;;;;;53.17;22.10;;;;;;;0.59;40.37;99134.03;5055048;28;20032;-74
2022/02/05 07:11:26;;;;;;;56.40;22.83;;;;;;;0.61;40.48;99127.75;5042155;28;20044;-74
2022/02/05 07:13:53;;;;;;;53.70;22.10;;;;;;;0.68;40.25;99128.13;5057956;28;20096;-74
2022/02/05 07:16:25;;;;;;;52.87;22.43;;;;;;;0.78;40.13;99134.41;5042130;28;20048;-75
2022/02/05 07:21:36;;;;;;;60.13;24.33;;;;;;;0.93;39.85;99128.06;5059371;28;20040;-74
2022/02/05 07:29:16;;;;;;;57.67;22.53;;;;;;;1.29;39.45;99114.94;5060551;28;20050;-84
2022/02/05 07:31:55;;;;;;;55.40;23.27;;;;;;;1.83;39.48;99120.47;5058172;28;20145;-75
2022/02/05 07:34:29;;;;;;;63.40;23.87;;;;;;;1.73;38.85;99125.53;5074793;28;20048;-75
2022/02/05 07:37:01;;;;;;;60.70;24.53;;;;;;;1.58;38.50;99117.03;5087853;28;20036;-72
2022/02/05 07:39:36;;;;;;;61.47;24.00;;;;;;;1.77;38.45;99119.13;5083509;28;20095;-72
2022/02/05 07:42:03;;;;;;;62.47;25.67;;;;;;;1.69;38.78;99118.88;5081009;28;20137;-72
2022/02/05 07:44:29;;;;;;;65.97;25.23;;;;;;;1.73;38.51;99110.69;5064280;28;20454;-74
2022/02/05 07:46:59;;;;;;;63.87;25.60;;;;;;;1.88;38.27;99119.16;5048279;28;20040;-76
2022/02/05 07:49:25;;;;;;;60.87;24.87;;;;;;;1.98;38.73;99117.50;5063920;28;20044;-78
2022/02/05 07:51:51;;;;;;;66.70;28.00;;;;;;;2.06;38.41;99115.13;5023135;28;20094;-80
2022/02/05 07:54:17;;;;;;;61.00;26.60;;;;;;;2.05;38.50;99110.84;5038164;28;20076;-74
2022/02/05 07:56:45;;;;;;;66.67;25.60;;;;;;;2.19;38.56;99121.09;5037948;28;20121;-77
2022/02/05 07:59:14;;;;;;;65.83;26.07;;;;;;;2.26;38.45;99124.91;5041978;28;20059;-76
2022/02/05 08:01:41;;;;;;;63.97;26.10;;;;;;;2.31;38.40;99120.13;5056085;28;20044;-74
2022/02/05 08:04:07;;;;;;;63.63;25.00;;;;;;;2.16;38.16;99112.63;5053720;28;20064;-72
2022/02/05 08:06:34;;;;;;;79.17;24.03;;;;;;;2.19;38.11;99109.78;5020832;28;20131;-74
2022/02/05 08:09:12;;;;;;;56.37;23.80;;;;;;;2.40;38.29;99113.38;5053981;28;20116;-79
2022/02/05 08:11:45;;;;;;;59.90;23.57;;;;;;;2.31;38.06;99100.97;5038255;28;20419;-72
2022/02/05 08:14:12;;;;;;;55.93;24.47;;;;;;;2.26;38.43;99098.69;5055503;28;20056;-72
2022/02/05 08:19:07;;;;;;;61.93;25.70;;;;;;;2.61;37.99;99094.16;5053611;28;20036;-73
2022/02/05 08:21:33;;;;;;;67.00;26.43;;;;;;;2.71;38.02;99092.47;5036731;28;20131;-73
2022/02/05 08:23:59;;;;;;;57.93;22.93;;;;;;;2.80;37.59;99102.22;5020771;28;20143;-73
2022/02/05 08:26:28;;;;;;;52.40;23.33;;;;;;;2.87;37.34;99086.84;5037144;28;20048;-74
2022/02/05 08:28:55;;;;;;;57.33;22.97;;;;;;;2.93;37.27;99065.34;5053922;28;20048;-72
2022/02/05 08:31:21;;;;;;;54.07;22.63;;;;;;;3.10;36.72;99093.69;5036740;28;20046;-72
2022/02/05 08:33:48;;;;;;;55.83;21.53;;;;;;;3.14;36.56;99089.84;5070353;28;20048;-71
2022/02/05 08:36:14;;;;;;;57.00;23.40;;;;;;;3.24;36.40;99083.72;5053277;28;20123;-72
2022/02/05 08:38:40;;;;;;;48.90;23.03;;;;;;;3.17;36.37;99085.19;5036827;28;20033;-72
2022/02/05 08:41:06;;;;;;;53.20;23.63;;;;;;;2.99;36.58;99057.00;5036230;28;20051;-72
2022/02/05 08:43:32;;;;;;;60.30;23.30;;;;;;;3.11;36.79;99087.47;5069304;28;20131;-72
2022/02/05 08:45:58;;;;;;;65.27;25.93;;;;;;;3.00;36.74;99077.84;5036691;28;20052;-73
2022/02/05 08:48:24;;;;;;;68.43;28.17;;;;;;;3.14;36.98;99089.84;5058334;28;20036;-72
2022/02/05 08:50:50;;;;;;;64.93;26.63;;;;;;;3.06;36.87;99090.47;5037049;28;20040;-72
2022/02/05 08:53:20;;;;;;;55.23;23.57;;;;;;;3.10;36.83;99086.66;5053666;28;20565;-72
2022/02/05 08:55:46;;;;;;;65.03;24.40;;;;;;;3.19;37.09;99082.44;5053211;28;20117;-73
2022/02/05 08:58:13;;;;;;;55.03;23.80;;;;;;;3.24;36.86;99081.09;5089915;28;20121;-73
2022/02/05 09:00:48;;;;;;;56.30;23.27;;;;;;;3.27;36.77;99075.63;5089855;28;20515;-71
2022/02/05 09:06:19;;;;;;;53.60;23.87;;;;;;;3.67;36.26;99062.63;5032923;28;20507;-73
2022/02/05 09:08:50;;;;;;;60.87;23.33;;;;;;;3.88;35.50;99066.06;5051467;28;20036;-74
2022/02/05 09:16:20;;;;;;;55.93;23.33;;;;;;;6.17;32.18;99050.50;5086576;28;20083;-74
2022/02/05 09:18:46;;;;;;;52.60;23.63;;;;;;;7.78;29.77;99047.72;5037289;28;20044;-74
2022/02/05 09:21:14;;;;;;;49.90;23.50;;;;;;;9.43;27.37;99032.78;5057081;28;20135;-74
2022/02/05 09:23:41;;;;;;;50.65;23.35;;;;;;;11.24;25.10;99038.88;5040809;28;20050;-74
2022/02/05 09:26:08;;;;;;;48.63;22.73;;;;;;;13.01;22.70;99013.88;5057255;28;20452;-74
2022/02/05 09:28:34;;;;;;;52.03;23.98;;;;;;;14.56;20.75;99018.88;5073719;28;20086;-74
2022/02/05 09:33:33;;;;;;;45.75;23.70;;;;;;;17.63;18.26;99015.91;5056949;28;20048;-74
2022/02/05 09:35:59;;;;;;;43.63;23.13;;;;;;;19.14;16.63;99006.06;5090133;28;20043;-74
2022/02/05 09:38:25;;;;;;;45.80;24.90;;;;;;;20.60;15.39;98998.91;5039860;28;20047;-74
2022/02/05 09:40:51;;;;;;;47.08;25.23;;;;;;;21.52;14.17;98991.31;5089871;28;20048;-75
2022/02/05 09:43:23;;;;;;;44.08;26.77;;;;;;;22.57;13.17;98983.25;5039777;28;20415;-75
2022/02/05 09:45:49;;;;;;;47.20;28.15;;;;;;;23.24;12.32;98992.72;5089858;28;20503;-75
2022/02/05 09:48:17;;;;;;;46.65;27.38;;;;;;;24.20;11.85;98989.81;5089694;28;20044;-75
2022/02/05 09:50:43;;;;;;;47.08;28.10;;;;;;;24.79;11.15;98982.31;5039191;28;20047;-75
2022/02/05 09:53:16;;;;;;;39.90;26.88;;;;;;;25.26;10.61;98971.31;5039410;28;20039;-75
2022/02/05 09:55:46;;;;;;;41.67;27.75;;;;;;;25.54;9.87;98957.28;5073472;28;20054;-75
2022/02/05 09:58:14;;;;;;;40.72;27.08;;;;;;;25.76;10.01;98972.22;5089498;28;20131;-76
2022/02/05 10:00:41;;;;;;;44.20;27.92;;;;;;;25.81;9.83;98945.03;5089614;28;20043;-75
2022/02/05 10:03:24;;;;;;;39.38;27.20;;;;;;;26.35;8.79;98967.81;5089737;28;20535;-76
2022/02/05 10:06:22;;;;;;;40.75;27.38;;;;;;;26.36;9.20;98965.94;5090303;28;20419;-76
2022/02/05 10:09:02;;;;;;;41.40;26.25;;;;;;;26.40;8.98;98958.84;5091247;28;20557;-77
2022/02/05 10:11:31;;;;;;;33.87;24.30;;;;;;;26.29;9.18;98957.25;5074411;28;20060;-77
2022/02/05 10:14:21;;;;;;;35.30;23.17;;;;;;;26.36;8.77;98942.25;5074322;28;20342;-77
2022/02/05 10:17:04;;;;;;;33.63;22.08;;;;;;;26.68;8.22;98947.31;5090728;28;20071;-76
2022/02/05 10:19:53;;;;;;;32.53;21.92;;;;;;;26.95;8.79;98947.75;5055748;28;20519;-76
2022/02/05 10:22:20;;;;;;;31.17;22.15;;;;;;;26.92;8.24;98933.88;5055898;28;20044;-76
2022/02/05 10:24:55;;;;;;;33.22;23.38;;;;;;;26.61;8.18;98935.06;5071879;28;20036;-77
2022/02/05 10:27:29;;;;;;;30.48;20.95;;;;;;;26.49;8.08;98933.47;5072260;28;20059;-76
2022/02/05 10:30:09;;;;;;;27.35;18.95;;;;;;;26.50;8.01;98907.06;5072197;28;20049;-76
2022/02/05 10:32:48;;;;;;;24.50;18.30;;;;;;;26.62;8.17;98920.38;5090672;28;20036;-76
2022/02/05 10:35:26;;;;;;;27.48;17.17;;;;;;;26.87;7.88;98923.00;5089947;28;20048;-75
2022/02/05 10:40:40;;;;;;;30.10;20.77;;;;;;;27.10;8.05;98914.13;5072809;28;20046;-75
2022/02/05 10:43:07;;;;;;;28.95;20.70;;;;;;;27.06;8.02;98910.38;5040945;28;20050;-75
2022/02/05 10:45:46;;;;;;;36.92;23.65;;;;;;;26.95;7.91;98898.72;5041927;28;20040;-75
2022/02/05 10:48:20;;;;;;;30.98;21.00;;;;;;;26.87;7.85;98895.75;5092462;28;20040;-75
2022/02/05 10:50:48;;;;;;;31.75;22.42;;;;;;;26.86;8.01;98903.13;5059092;28;20100;-75
2022/02/05 10:53:34;;;;;;;32.55;21.85;;;;;;;27.21;7.63;98885.72;5092512;28;20587;-75
2022/02/05 10:59:36;;;;;;;;;;;;;;;27.69;7.44;98879.34;5077469;28;20043;-75
2022/02/05 11:07:05;;;;;;;31.73;21.48;;;;;;;27.69;7.64;98861.06;5075468;28;20393;-75
2022/02/05 11:09:32;;;;;;;30.83;21.77;;;;;;;27.69;7.52;98865.72;5075113;28;20500;-75
2022/02/05 11:12:20;;;;;;;34.97;23.65;;;;;;;27.53;7.63;98832.31;5075131;28;20564;-76
2022/02/05 11:20:10;;;;;;;35.70;22.02;;;;;;;27.37;7.57;98836.25;5075021;28;20048;-76
2022/02/05 11:22:41;;;;;;;33.97;22.13;;;;;;;27.22;7.65;98835.53;5075497;28;20388;-76
2022/02/05 11:25:08;;;;;;;31.17;23.33;;;;;;;27.09;7.96;98838.91;5058767;28;20082;-76
2022/02/05 11:27:34;;;;;;;35.58;24.50;;;;;;;26.80;7.80;98832.56;5075386;28;20040;-75
2022/02/05 11:30:36;;;;;;;39.72;24.92;;;;;;;26.42;8.08;98825.94;5041955;28;20146;-75
2022/02/05 11:33:19;;;;;;;34.45;22.77;;;;;;;25.74;8.15;98819.34;5075374;28;20516;-75
2022/02/05 11:36:20;;;;;;;36.35;22.98;;;;;;;25.20;8.67;98823.72;5075498;28;20066;-75
2022/02/05 11:38:36;;;;;;;32.97;23.15;;;;;;;24.88;8.79;98823.97;5074421;28;20392;-75
2022/02/05 11:41:03;;;;;;;32.35;21.77;;;;;;;24.70;9.26;98812.81;5058578;28;20044;-75
2022/02/05 11:43:34;;;;;;;29.55;20.98;;;;;;;24.61;9.09;98815.22;5092164;28;20097;-76
2022/02/05 11:46:07;;;;;;;33.90;20.92;;;;;;;24.28;9.39;98814.84;5042761;28;20048;-76
2022/02/05 11:48:59;;;;;;;32.80;21.92;;;;;;;23.93;9.27;98785.63;5060074;28;20048;-76
2022/02/05 11:51:30;;;;;;;32.65;22.38;;;;;;;23.68;9.85;98809.09;5076347;28;20044;-76
2022/02/05 11:53:59;;;;;;;37.33;22.17;;;;;;;23.42;9.99;98807.28;5058881;28;20067;-76
2022/02/05 11:56:52;;;;;;;31.83;21.98;;;;;;;23.40;9.58;98818.41;5074542;28;20051;-76
2022/02/05 11:59:21;;;;;;;37.15;22.85;;;;;;;23.02;10.00;98807.75;5076721;28;20052;-75
2022/02/05 12:01:47;;;;;;;38.60;23.35;;;;;;;22.47;10.29;98815.28;5041267;28;20051;-75
2022/02/05 12:04:24;;;;;;;38.28;21.63;;;;;;;21.71;10.66;98810.81;5074762;28;20380;-75
2022/02/05 12:06:57;;;;;;;34.47;22.02;;;;;;;20.47;11.45;98794.97;5075173;28;20495;-75
2022/02/05 12:09:43;;;;;;;36.53;22.40;;;;;;;18.77;12.63;98793.81;5058523;28;20043;-75
2022/02/05 12:12:34;;;;;;;37.92;21.88;;;;;;;17.24;13.54;98802.25;5059504;28;20100;-76
2022/02/05 12:15:11;;;;;;;;;;;;;;;15.86;14.57;98790.78;5058184;28;20040;-75
2022/02/05 12:21:14;;;;;;;42.78;21.50;;;;;;;12.20;18.76;98768.31;5092166;28;20043;-74
2022/02/05 12:26:17;;;;;;;41.25;21.85;;;;;;;10.64;21.22;98793.59;5074963;28;20043;-75
2022/02/05 12:28:46;;;;;;;;;;;;;;;9.71;21.27;98797.31;5041868;28;20101;-73
2022/02/05 12:31:18;;;;;;;45.97;22.20;;;;;;;8.42;22.76;98796.75;5057823;28;20042;-75
2022/02/05 12:34:08;;;;;;;41.78;21.05;;;;;;;7.05;24.95;98791.97;5074625;28;20047;-74
2022/02/05 12:36:54;;;;;;;45.37;21.30;;;;;;;6.14;26.46;98790.66;5042125;28;20100;-74
2022/02/05 12:39:23;;;;;;;48.70;22.37;;;;;;;5.03;28.42;98785.69;5059310;28;20036;-74
2022/02/05 12:41:51;;;;;;;49.27;22.40;;;;;;;4.59;29.10;98786.38;5058253;28;20067;-74
2022/02/05 12:44:22;;;;;;;51.50;23.13;;;;;;;4.29;30.29;98781.31;5074294;28;20077;-74
2022/02/05 12:46:54;;;;;;;46.80;23.07;;;;;;;3.87;30.67;98793.03;5074275;28;20036;-74
2022/02/05 12:49:28;;;;;;;49.67;23.83;;;;;;;3.51;31.88;98783.19;5057735;28;20066;-74
2022/02/05 12:51:56;;;;;;;50.53;21.07;;;;;;;3.10;32.34;98784.97;5058528;28;20419;-74
2022/02/05 12:54:25;;;;;;;50.20;23.43;;;;;;;2.97;33.02;98797.47;5057773;28;20044;-74
2022/02/05 12:56:54;;;;;;;53.03;22.87;;;;;;;2.58;33.86;98797.41;5057356;28;20151;-75
2022/02/05 12:59:27;;;;;;;50.67;22.37;;;;;;;2.36;34.47;98785.25;5057338;28;20423;-74
2022/02/05 13:02:00;;;;;;;53.07;22.73;;;;;;;1.95;35.20;98794.84;5075020;28;20036;-75
2022/02/05 13:04:28;;;;;;;47.70;21.73;;;;;;;1.85;35.85;98789.53;5077781;28;20044;-75
2022/02/05 13:07:01;;;;;;;48.30;22.07;;;;;;;1.56;36.16;98759.63;5093364;28;20513;-74
2022/02/05 13:09:28;;;;;;;48.60;22.27;;;;;;;1.33;37.02;98787.66;5060765;28;20050;-74
2022/02/05 13:11:58;;;;;;;50.20;23.30;;;;;;;1.33;37.70;98797.25;5043797;28;20406;-75
2022/02/05 13:14:49;;;;;;;63.20;25.55;;;;;;;1.29;38.24;98796.66;5060857;28;20511;-75
2022/02/05 13:33:59;;;;;;;56.37;21.40;;;;;;;0.30;40.75;98764.41;5062802;28;20043;-76
2022/02/05 13:36:51;;;;;;;51.37;21.30;;;;;;;0.49;40.62;98749.03;5045548;28;20047;-76
2022/02/05 13:42:05;;;;;;;49.80;19.33;;;;;;;0.14;41.32;98764.75;5076629;28;20047;-75
2022/02/05 13:44:59;;;;;;;47.90;19.17;;;;;;;0.02;41.25;98736.94;5078726;28;20044;-75
2022/02/05 13:47:28;;;;;;;42.40;18.37;;;;;;;-0.09;41.58;98749.94;5077567;28;20036;-75
2022/02/05 13:50:01;;;;;;;40.63;18.37;;;;;;;-0.01;41.85;98769.34;5059480;28;20138;-75
2022/02/05 13:52:41;;;;;;;43.93;18.43;;;;;;;-0.14;42.24;98752.91;5060022;28;20035;-75
2022/02/05 13:55:13;;;;;;;46.47;19.25;;;;;;;-0.30;42.87;98749.78;5077576;28;20445;-76
2022/02/05 13:58:02;;;;;;;45.00;18.23;;;;;;;-0.21;42.99;98756.94;5060483;28;20043;-75
2022/02/05 14:00:47;;;;;;;46.53;19.60;;;;;;;-0.30;43.42;98757.59;5060278;28;20083;-75
2022/02/05 14:03:34;;;;;;;53.80;20.93;;;;;;;-0.41;43.24;98756.69;5077030;28;20138;-75
2022/02/05 14:06:11;;;;;;;48.93;20.03;;;;;;;-0.13;46.20;98749.38;5043364;28;20065;-75
2022/02/05 14:08:42;;;;;;;53.50;19.67;;;;;;;0.02;44.81;98759.63;5060124;28;20051;-75
2022/02/05 14:11:09;;;;;;;49.37;19.40;;;;;;;-0.05;43.35;98757.44;5060298;28;20074;-76
2022/02/05 14:13:36;;;;;;;47.33;20.90;;;;;;;-0.22;43.32;98718.75;5076726;28;20514;-76
2022/02/05 14:16:04;;;;;;;50.53;21.03;;;;;;;-0.16;43.56;98743.53;5060563;28;20111;-75
2022/02/05 14:18:35;;;;;;;50.47;18.07;;;;;;;0.16;43.83;98743.75;5062693;28;20491;-76
2022/02/05 14:21:03;;;;;;;36.55;18.55;;;;;;;0.40;42.86;98742.72;5099197;28;20518;-75
2022/02/05 14:23:31;;;;;;;33.53;15.93;;;;;;;0.40;42.88;98744.53;5097377;28;20050;-75
2022/02/05 14:26:10;;;;;;;39.60;16.70;;;;;;;0.65;41.97;98744.28;5063766;28;20567;-75
2022/02/05 14:28:44;;;;;;;47.00;17.80;;;;;;;0.52;41.72;98741.81;5065058;28;20039;-76
2022/02/05 14:31:12;;;;;;;38.57;15.20;;;;;;;0.07;42.08;98749.66;5063814;28;20131;-76
2022/02/05 14:42:01;;;;;;;34.77;14.93;;;;;;;-0.78;42.96;98735.06;5065890;28;20067;-75
2022/02/05 14:44:27;;;;;;;32.27;14.03;;;;;;;-0.58;42.55;98768.34;5080047;28;20086;-75
2022/02/05 14:46:53;;;;;;;38.57;16.43;;;;;;;-0.71;43.42;98751.91;5080116;28;20047;-75
2022/02/05 14:49:19;;;;;;;36.97;16.07;;;;;;;-0.77;43.55;98747.13;5046823;28;20531;-75
2022/02/05 14:51:45;;;;;;;41.47;18.30;;;;;;;-0.88;44.28;98735.81;5063446;28;20073;-76
2022/02/05 14:54:11;;;;;;;40.50;18.13;;;;;;;-1.09;44.75;98725.13;5063569;28;20567;-76